sensor_id;sensor_type;location;lat;lon;timestamp;temperature;humidity
59660;DHT22;45534;52.690;6.268;2022-10-16T00:01:56;13.20;99.90
59660;DHT22;45534;52.690;6.268;2022-10-16T00:04:22;13.10;99.90
59660;DHT22;45534;52.690;6.268;2022-10-16T00:06:47;13.10;99.90
59660;DHT22;45534;52.690;6.268;2022-10-16T00:09:13;13.10;99.90
59660;DHT22;45534;52.690;6.268;2022-10-16T00:11:40;13.10;99.90
59660;DHT22;45534;52.690;6.268;2022-10-16T00:14:09;13.10;99.90
59660;DHT22;45534;52.690;6.268;2022-10-16T00:16:36;13.10;99.90
59660;DHT22;45534;52.690;6.268;2022-10-16T00:19:03;13.10;99.90
59660;DHT22;45534;52.690;6.268;2022-10-16T00:21:29;13.10;99.90
59660;DHT22;45534;52.690;6.268;2022-10-16T00:24:04;13.00;99.90
59660;DHT22;45534;52.690;6.268;2022-10-16T00:26:33;13.00;99.90
59660;DHT22;45534;52.690;6.268;2022-10-16T00:28:59;13.00;99.90
59660;DHT22;45534;52.690;6.268;2022-10-16T00:31:25;13.00;99.90
59660;DHT22;45534;52.690;6.268;2022-10-16T00:33:51;13.00;99.90
59660;DHT22;45534;52.690;6.268;2022-10-16T00:36:20;13.00;99.90
59660;DHT22;45534;52.690;6.268;2022-10-16T00:38:46;13.00;99.90
59660;DHT22;45534;52.690;6.268;2022-10-16T00:41:14;13.00;99.90
59660;DHT22;45534;52.690;6.268;2022-10-16T00:43:45;13.00;99.90
59660;DHT22;45534;52.690;6.268;2022-10-16T00:49:08;13.00;99.90
59660;DHT22;45534;52.690;6.268;2022-10-16T00:51:40;13.00;99.90
59660;DHT22;45534;52.690;6.268;2022-10-16T00:54:16;13.00;99.90
59660;DHT22;45534;52.690;6.268;2022-10-16T00:56:43;13.00;99.90
59660;DHT22;45534;52.690;6.268;2022-10-16T00:59:20;13.00;99.90
59660;DHT22;45534;52.690;6.268;2022-10-16T01:01:48;13.00;99.90
59660;DHT22;45534;52.690;6.268;2022-10-16T01:04:14;13.00;99.90
59660;DHT22;45534;52.690;6.268;2022-10-16T01:12:09;13.00;99.90
59660;DHT22;45534;52.690;6.268;2022-10-16T01:17:18;13.00;99.90
59660;DHT22;45534;52.690;6.268;2022-10-16T01:22:48;13.10;99.90
59660;DHT22;45534;52.690;6.268;2022-10-16T01:25:25;13.10;99.90
59660;DHT22;45534;52.690;6.268;2022-10-16T01:27:55;13.10;99.90
59660;DHT22;45534;52.690;6.268;2022-10-16T01:30:28;13.00;99.90
59660;DHT22;45534;52.690;6.268;2022-10-16T01:33:04;13.10;99.90
59660;DHT22;45534;52.690;6.268;2022-10-16T01:35:47;13.10;99.90
59660;DHT22;45534;52.690;6.268;2022-10-16T01:40:46;13.10;99.90
59660;DHT22;45534;52.690;6.268;2022-10-16T01:43:16;13.10;99.90
59660;DHT22;45534;52.690;6.268;2022-10-16T01:45:45;13.10;99.90
59660;DHT22;45534;52.690;6.268;2022-10-16T01:48:14;13.10;99.90
59660;DHT22;45534;52.690;6.268;2022-10-16T01:50:44;13.10;99.90
59660;DHT22;45534;52.690;6.268;2022-10-16T01:53:12;13.10;99.90
59660;DHT22;45534;52.690;6.268;2022-10-16T01:55:41;13.10;99.90
59660;DHT22;45534;52.690;6.268;2022-10-16T01:58:10;13.10;99.90
59660;DHT22;45534;52.690;6.268;2022-10-16T02:00:38;13.10;99.90
59660;DHT22;45534;52.690;6.268;2022-10-16T02:03:06;13.10;99.90
59660;DHT22;45534;52.690;6.268;2022-10-16T02:05:46;13.10;99.90
59660;DHT22;45534;52.690;6.268;2022-10-16T02:08:12;13.10;99.90
59660;DHT22;45534;52.690;6.268;2022-10-16T02:10:38;13.10;99.90
59660;DHT22;45534;52.690;6.268;2022-10-16T02:13:16;13.10;99.90
59660;DHT22;45534;52.690;6.268;2022-10-16T02:15:42;13.00;99.90
59660;DHT22;45534;52.690;6.268;2022-10-16T02:18:08;13.00;99.90
59660;DHT22;45534;52.690;6.268;2022-10-16T02:23:19;13.00;99.90
59660;DHT22;45534;52.690;6.268;2022-10-16T02:25:50;13.00;99.90
59660;DHT22;45534;52.690;6.268;2022-10-16T02:28:19;13.10;99.90
59660;DHT22;45534;52.690;6.268;2022-10-16T02:30:50;13.10;99.90
59660;DHT22;45534;52.690;6.268;2022-10-16T02:33:17;13.10;99.90
59660;DHT22;45534;52.690;6.268;2022-10-16T02:35:46;13.10;99.90
59660;DHT22;45534;52.690;6.268;2022-10-16T02:38:14;13.10;99.90
59660;DHT22;45534;52.690;6.268;2022-10-16T02:40:40;13.10;99.90
59660;DHT22;45534;52.690;6.268;2022-10-16T02:43:06;13.10;99.90
59660;DHT22;45534;52.690;6.268;2022-10-16T02:45:32;13.10;99.90
59660;DHT22;45534;52.690;6.268;2022-10-16T02:47:58;13.20;99.90
59660;DHT22;45534;52.690;6.268;2022-10-16T02:50:24;13.20;99.90
59660;DHT22;45534;52.690;6.268;2022-10-16T02:52:50;13.20;99.90
59660;DHT22;45534;52.690;6.268;2022-10-16T02:55:16;13.20;99.90
59660;DHT22;45534;52.690;6.268;2022-10-16T02:57:42;13.20;99.90
59660;DHT22;45534;52.690;6.268;2022-10-16T03:00:10;13.10;99.90
59660;DHT22;45534;52.690;6.268;2022-10-16T03:02:36;13.10;99.90
59660;DHT22;45534;52.690;6.268;2022-10-16T03:05:02;13.10;99.90
59660;DHT22;45534;52.690;6.268;2022-10-16T03:07:28;13.10;99.90
59660;DHT22;45534;52.690;6.268;2022-10-16T03:09:54;13.10;99.90
59660;DHT22;45534;52.690;6.268;2022-10-16T03:12:21;13.10;99.90
59660;DHT22;45534;52.690;6.268;2022-10-16T03:14:46;13.10;99.90
59660;DHT22;45534;52.690;6.268;2022-10-16T03:17:12;13.10;99.90
59660;DHT22;45534;52.690;6.268;2022-10-16T03:19:39;13.10;99.90
59660;DHT22;45534;52.690;6.268;2022-10-16T03:22:04;13.10;99.90
59660;DHT22;45534;52.690;6.268;2022-10-16T03:24:30;13.10;99.90
59660;DHT22;45534;52.690;6.268;2022-10-16T03:26:56;13.10;99.90
59660;DHT22;45534;52.690;6.268;2022-10-16T03:29:22;13.00;99.90
59660;DHT22;45534;52.690;6.268;2022-10-16T03:31:47;13.00;99.90
59660;DHT22;45534;52.690;6.268;2022-10-16T03:34:15;13.00;99.90
59660;DHT22;45534;52.690;6.268;2022-10-16T03:36:41;13.00;99.90
59660;DHT22;45534;52.690;6.268;2022-10-16T03:39:06;13.00;99.90
59660;DHT22;45534;52.690;6.268;2022-10-16T03:41:32;13.00;99.90
59660;DHT22;45534;52.690;6.268;2022-10-16T03:43:57;13.00;99.90
59660;DHT22;45534;52.690;6.268;2022-10-16T03:46:23;13.00;99.90
59660;DHT22;45534;52.690;6.268;2022-10-16T03:48:49;12.90;99.90
59660;DHT22;45534;52.690;6.268;2022-10-16T03:51:15;12.90;99.90
59660;DHT22;45534;52.690;6.268;2022-10-16T03:53:40;12.90;99.90
59660;DHT22;45534;52.690;6.268;2022-10-16T03:56:06;12.80;99.90
59660;DHT22;45534;52.690;6.268;2022-10-16T03:58:32;12.80;99.90
59660;DHT22;45534;52.690;6.268;2022-10-16T04:00:57;12.80;99.90
59660;DHT22;45534;52.690;6.268;2022-10-16T04:03:23;12.80;99.90
59660;DHT22;45534;52.690;6.268;2022-10-16T04:05:49;12.70;99.90
59660;DHT22;45534;52.690;6.268;2022-10-16T04:08:15;12.70;99.90
59660;DHT22;45534;52.690;6.268;2022-10-16T04:10:44;12.70;99.90
59660;DHT22;45534;52.690;6.268;2022-10-16T04:13:10;12.60;99.90
59660;DHT22;45534;52.690;6.268;2022-10-16T04:15:36;12.60;99.90
59660;DHT22;45534;52.690;6.268;2022-10-16T04:18:01;12.60;99.90
59660;DHT22;45534;52.690;6.268;2022-10-16T04:20:27;12.60;99.90
59660;DHT22;45534;52.690;6.268;2022-10-16T04:22:53;12.60;99.90
59660;DHT22;45534;52.690;6.268;2022-10-16T04:25:18;12.50;99.90
59660;DHT22;45534;52.690;6.268;2022-10-16T04:27:44;12.50;99.90
59660;DHT22;45534;52.690;6.268;2022-10-16T04:30:10;12.60;99.90
59660;DHT22;45534;52.690;6.268;2022-10-16T04:32:36;12.60;99.90
59660;DHT22;45534;52.690;6.268;2022-10-16T04:35:01;12.60;99.90
59660;DHT22;45534;52.690;6.268;2022-10-16T04:37:28;12.60;99.90
59660;DHT22;45534;52.690;6.268;2022-10-16T04:39:54;12.60;99.90
59660;DHT22;45534;52.690;6.268;2022-10-16T04:42:20;12.60;99.90
59660;DHT22;45534;52.690;6.268;2022-10-16T04:44:46;12.60;99.90
59660;DHT22;45534;52.690;6.268;2022-10-16T04:47:12;12.60;99.90
59660;DHT22;45534;52.690;6.268;2022-10-16T04:49:37;12.60;99.90
59660;DHT22;45534;52.690;6.268;2022-10-16T04:52:03;12.60;99.90
59660;DHT22;45534;52.690;6.268;2022-10-16T04:54:29;12.60;99.90
59660;DHT22;45534;52.690;6.268;2022-10-16T04:56:55;12.60;99.90
59660;DHT22;45534;52.690;6.268;2022-10-16T04:59:21;12.60;99.90
59660;DHT22;45534;52.690;6.268;2022-10-16T05:01:48;12.60;99.90
59660;DHT22;45534;52.690;6.268;2022-10-16T05:04:14;12.60;99.90
59660;DHT22;45534;52.690;6.268;2022-10-16T05:06:41;12.60;99.90
59660;DHT22;45534;52.690;6.268;2022-10-16T05:09:07;12.60;99.90
59660;DHT22;45534;52.690;6.268;2022-10-16T05:11:33;12.50;99.90
59660;DHT22;45534;52.690;6.268;2022-10-16T05:13:59;12.50;99.90
59660;DHT22;45534;52.690;6.268;2022-10-16T05:16:26;12.50;99.90
59660;DHT22;45534;52.690;6.268;2022-10-16T05:18:52;12.50;99.90
59660;DHT22;45534;52.690;6.268;2022-10-16T05:21:18;12.50;99.90
59660;DHT22;45534;52.690;6.268;2022-10-16T05:23:44;12.50;99.90
59660;DHT22;45534;52.690;6.268;2022-10-16T05:26:10;12.60;99.90
59660;DHT22;45534;52.690;6.268;2022-10-16T05:28:36;12.60;99.90
59660;DHT22;45534;52.690;6.268;2022-10-16T05:31:09;12.60;99.90
59660;DHT22;45534;52.690;6.268;2022-10-16T05:33:35;12.60;99.90
59660;DHT22;45534;52.690;6.268;2022-10-16T05:36:02;12.60;99.90
59660;DHT22;45534;52.690;6.268;2022-10-16T05:38:28;12.70;99.90
59660;DHT22;45534;52.690;6.268;2022-10-16T05:40:54;12.60;99.90
59660;DHT22;45534;52.690;6.268;2022-10-16T05:43:20;12.50;99.90
59660;DHT22;45534;52.690;6.268;2022-10-16T05:45:57;12.50;99.90
59660;DHT22;45534;52.690;6.268;2022-10-16T05:48:23;12.50;99.90
59660;DHT22;45534;52.690;6.268;2022-10-16T05:50:59;12.50;99.90
59660;DHT22;45534;52.690;6.268;2022-10-16T05:53:26;12.50;99.90
59660;DHT22;45534;52.690;6.268;2022-10-16T05:55:53;12.50;99.90
59660;DHT22;45534;52.690;6.268;2022-10-16T05:58:19;12.50;99.90
59660;DHT22;45534;52.690;6.268;2022-10-16T06:00:45;12.50;99.90
59660;DHT22;45534;52.690;6.268;2022-10-16T06:03:17;12.50;99.90
59660;DHT22;45534;52.690;6.268;2022-10-16T06:05:43;12.50;99.90
59660;DHT22;45534;52.690;6.268;2022-10-16T06:08:08;12.50;99.90
59660;DHT22;45534;52.690;6.268;2022-10-16T06:10:34;12.50;99.90
59660;DHT22;45534;52.690;6.268;2022-10-16T06:13:00;12.50;99.90
59660;DHT22;45534;52.690;6.268;2022-10-16T06:15:25;12.50;99.90
59660;DHT22;45534;52.690;6.268;2022-10-16T06:17:51;12.50;99.90
59660;DHT22;45534;52.690;6.268;2022-10-16T06:20:17;12.50;99.90
59660;DHT22;45534;52.690;6.268;2022-10-16T06:22:42;12.50;99.90
59660;DHT22;45534;52.690;6.268;2022-10-16T06:25:08;12.60;99.90
59660;DHT22;45534;52.690;6.268;2022-10-16T06:27:34;12.60;99.90
59660;DHT22;45534;52.690;6.268;2022-10-16T06:29:59;12.60;99.90
59660;DHT22;45534;52.690;6.268;2022-10-16T06:32:25;12.60;99.90
59660;DHT22;45534;52.690;6.268;2022-10-16T06:34:50;12.60;99.90
59660;DHT22;45534;52.690;6.268;2022-10-16T06:37:16;12.60;99.90
59660;DHT22;45534;52.690;6.268;2022-10-16T06:39:42;12.60;99.90
59660;DHT22;45534;52.690;6.268;2022-10-16T06:42:07;12.70;99.90
59660;DHT22;45534;52.690;6.268;2022-10-16T06:44:33;12.70;99.90
59660;DHT22;45534;52.690;6.268;2022-10-16T06:46:59;12.80;99.90
59660;DHT22;45534;52.690;6.268;2022-10-16T06:49:24;12.80;99.90
59660;DHT22;45534;52.690;6.268;2022-10-16T06:51:50;12.90;99.90
59660;DHT22;45534;52.690;6.268;2022-10-16T06:54:16;12.90;99.90
59660;DHT22;45534;52.690;6.268;2022-10-16T06:56:43;13.00;99.90
59660;DHT22;45534;52.690;6.268;2022-10-16T06:59:08;13.00;99.90
59660;DHT22;45534;52.690;6.268;2022-10-16T07:01:34;13.10;99.90
59660;DHT22;45534;52.690;6.268;2022-10-16T07:04:00;13.10;99.90
59660;DHT22;45534;52.690;6.268;2022-10-16T07:06:27;13.20;99.90
59660;DHT22;45534;52.690;6.268;2022-10-16T07:08:55;13.30;99.90
59660;DHT22;45534;52.690;6.268;2022-10-16T07:11:23;13.30;99.90
59660;DHT22;45534;52.690;6.268;2022-10-16T07:13:49;13.30;99.90
59660;DHT22;45534;52.690;6.268;2022-10-16T07:16:18;13.40;99.90
59660;DHT22;45534;52.690;6.268;2022-10-16T07:18:44;13.40;99.90
59660;DHT22;45534;52.690;6.268;2022-10-16T07:21:14;13.40;99.90
59660;DHT22;45534;52.690;6.268;2022-10-16T07:23:40;13.50;99.90
59660;DHT22;45534;52.690;6.268;2022-10-16T07:26:07;13.60;99.90
59660;DHT22;45534;52.690;6.268;2022-10-16T07:28:33;13.60;99.90
59660;DHT22;45534;52.690;6.268;2022-10-16T07:31:04;13.60;99.90
59660;DHT22;45534;52.690;6.268;2022-10-16T07:33:31;13.60;99.90
59660;DHT22;45534;52.690;6.268;2022-10-16T07:35:57;13.70;99.90
59660;DHT22;45534;52.690;6.268;2022-10-16T07:38:23;13.70;99.90
59660;DHT22;45534;52.690;6.268;2022-10-16T07:40:56;13.70;99.90
59660;DHT22;45534;52.690;6.268;2022-10-16T07:43:22;13.80;99.90
59660;DHT22;45534;52.690;6.268;2022-10-16T07:45:48;13.80;99.90
59660;DHT22;45534;52.690;6.268;2022-10-16T07:48:15;13.80;99.90
59660;DHT22;45534;52.690;6.268;2022-10-16T07:50:41;13.80;99.90
59660;DHT22;45534;52.690;6.268;2022-10-16T07:53:07;13.80;99.90
59660;DHT22;45534;52.690;6.268;2022-10-16T07:55:32;13.80;99.90
59660;DHT22;45534;52.690;6.268;2022-10-16T07:57:58;13.90;99.90
59660;DHT22;45534;52.690;6.268;2022-10-16T08:00:24;13.90;99.90
59660;DHT22;45534;52.690;6.268;2022-10-16T08:02:49;13.90;99.90
59660;DHT22;45534;52.690;6.268;2022-10-16T08:05:15;13.90;99.90
59660;DHT22;45534;52.690;6.268;2022-10-16T08:07:41;14.00;99.90
59660;DHT22;45534;52.690;6.268;2022-10-16T08:10:10;14.00;99.90
59660;DHT22;45534;52.690;6.268;2022-10-16T08:12:37;14.00;99.90
59660;DHT22;45534;52.690;6.268;2022-10-16T08:15:03;14.10;99.90
59660;DHT22;45534;52.690;6.268;2022-10-16T08:17:29;14.10;99.90
59660;DHT22;45534;52.690;6.268;2022-10-16T08:19:54;14.10;99.90
59660;DHT22;45534;52.690;6.268;2022-10-16T08:22:20;14.20;99.90
59660;DHT22;45534;52.690;6.268;2022-10-16T08:24:45;14.20;99.90
59660;DHT22;45534;52.690;6.268;2022-10-16T08:27:11;14.20;99.90
59660;DHT22;45534;52.690;6.268;2022-10-16T08:29:37;14.30;99.90
59660;DHT22;45534;52.690;6.268;2022-10-16T08:32:04;14.20;99.90
59660;DHT22;45534;52.690;6.268;2022-10-16T08:34:30;14.20;99.90
59660;DHT22;45534;52.690;6.268;2022-10-16T08:36:55;14.20;99.90
59660;DHT22;45534;52.690;6.268;2022-10-16T08:39:21;14.20;99.90
59660;DHT22;45534;52.690;6.268;2022-10-16T08:50:30;14.20;99.90
59660;DHT22;45534;52.690;6.268;2022-10-16T08:52:57;14.30;99.90
59660;DHT22;45534;52.690;6.268;2022-10-16T08:55:30;14.30;99.90
59660;DHT22;45534;52.690;6.268;2022-10-16T08:57:58;14.30;99.90
59660;DHT22;45534;52.690;6.268;2022-10-16T09:00:24;14.40;99.90
59660;DHT22;45534;52.690;6.268;2022-10-16T09:08:15;14.50;99.90
59660;DHT22;45534;52.690;6.268;2022-10-16T09:14:04;14.60;99.90
59660;DHT22;45534;52.690;6.268;2022-10-16T09:16:37;14.70;99.90
59660;DHT22;45534;52.690;6.268;2022-10-16T09:19:24;14.70;99.90
59660;DHT22;45534;52.690;6.268;2022-10-16T09:21:53;14.80;99.90
59660;DHT22;45534;52.690;6.268;2022-10-16T09:24:25;14.80;99.90
59660;DHT22;45534;52.690;6.268;2022-10-16T09:26:51;14.90;99.90
59660;DHT22;45534;52.690;6.268;2022-10-16T09:29:19;14.90;99.90
59660;DHT22;45534;52.690;6.268;2022-10-16T09:31:46;15.00;99.90
59660;DHT22;45534;52.690;6.268;2022-10-16T09:34:32;15.00;99.90
59660;DHT22;45534;52.690;6.268;2022-10-16T09:37:03;15.00;99.90
59660;DHT22;45534;52.690;6.268;2022-10-16T09:39:29;15.20;99.90
59660;DHT22;45534;52.690;6.268;2022-10-16T09:41:55;15.20;99.90
59660;DHT22;45534;52.690;6.268;2022-10-16T09:44:26;15.30;99.90
59660;DHT22;45534;52.690;6.268;2022-10-16T09:47:22;15.30;99.90
59660;DHT22;45534;52.690;6.268;2022-10-16T09:50:20;15.30;99.90
59660;DHT22;45534;52.690;6.268;2022-10-16T09:52:39;15.40;99.90
59660;DHT22;45534;52.690;6.268;2022-10-16T09:55:16;15.60;99.90
59660;DHT22;45534;52.690;6.268;2022-10-16T09:57:53;15.70;99.90
59660;DHT22;45534;52.690;6.268;2022-10-16T10:00:20;15.90;99.90
59660;DHT22;45534;52.690;6.268;2022-10-16T10:02:46;16.10;99.90
59660;DHT22;45534;52.690;6.268;2022-10-16T10:05:24;16.20;99.90
59660;DHT22;45534;52.690;6.268;2022-10-16T10:07:58;16.30;99.90
59660;DHT22;45534;52.690;6.268;2022-10-16T10:10:30;16.30;99.90
59660;DHT22;45534;52.690;6.268;2022-10-16T10:12:56;16.30;99.90
59660;DHT22;45534;52.690;6.268;2022-10-16T10:15:23;16.20;99.90
59660;DHT22;45534;52.690;6.268;2022-10-16T10:17:56;16.20;99.90
59660;DHT22;45534;52.690;6.268;2022-10-16T10:20:30;16.30;99.90
59660;DHT22;45534;52.690;6.268;2022-10-16T10:22:58;16.20;99.90
59660;DHT22;45534;52.690;6.268;2022-10-16T10:25:46;16.20;99.90
59660;DHT22;45534;52.690;6.268;2022-10-16T10:28:54;16.30;99.90
59660;DHT22;45534;52.690;6.268;2022-10-16T10:31:39;16.40;99.90
59660;DHT22;45534;52.690;6.268;2022-10-16T10:34:26;16.50;99.90
59660;DHT22;45534;52.690;6.268;2022-10-16T10:37:08;16.70;99.90
59660;DHT22;45534;52.690;6.268;2022-10-16T10:39:54;16.80;99.90
59660;DHT22;45534;52.690;6.268;2022-10-16T10:42:39;16.90;99.90
59660;DHT22;45534;52.690;6.268;2022-10-16T10:45:24;16.90;99.90
59660;DHT22;45534;52.690;6.268;2022-10-16T10:51:01;16.80;99.90
59660;DHT22;45534;52.690;6.268;2022-10-16T10:59:25;17.60;99.90
59660;DHT22;45534;52.690;6.268;2022-10-16T11:02:02;17.70;99.90
59660;DHT22;45534;52.690;6.268;2022-10-16T11:07:34;17.40;99.90
59660;DHT22;45534;52.690;6.268;2022-10-16T11:12:44;17.40;99.90
59660;DHT22;45534;52.690;6.268;2022-10-16T11:15:15;17.40;99.90
59660;DHT22;45534;52.690;6.268;2022-10-16T11:17:50;17.20;99.90
59660;DHT22;45534;52.690;6.268;2022-10-16T11:20:28;17.20;99.90
59660;DHT22;45534;52.690;6.268;2022-10-16T11:23:02;17.30;99.90
59660;DHT22;45534;52.690;6.268;2022-10-16T11:25:32;17.30;99.90
59660;DHT22;45534;52.690;6.268;2022-10-16T11:31:02;17.90;99.90
59660;DHT22;45534;52.690;6.268;2022-10-16T11:33:41;18.30;99.90
59660;DHT22;45534;52.690;6.268;2022-10-16T11:38:44;18.40;99.90
59660;DHT22;45534;52.690;6.268;2022-10-16T11:41:33;18.30;99.90
59660;DHT22;45534;52.690;6.268;2022-10-16T11:44:33;18.00;99.90
59660;DHT22;45534;52.690;6.268;2022-10-16T11:50:28;18.30;99.90
59660;DHT22;45534;52.690;6.268;2022-10-16T11:55:36;18.40;99.90
59660;DHT22;45534;52.690;6.268;2022-10-16T11:58:25;18.70;99.90
59660;DHT22;45534;52.690;6.268;2022-10-16T12:09:03;19.60;99.90
59660;DHT22;45534;52.690;6.268;2022-10-16T12:17:03;19.40;99.90
59660;DHT22;45534;52.690;6.268;2022-10-16T12:19:31;19.10;99.90
59660;DHT22;45534;52.690;6.268;2022-10-16T12:22:00;18.90;99.90
59660;DHT22;45534;52.690;6.268;2022-10-16T12:27:01;18.80;99.90
59660;DHT22;45534;52.690;6.268;2022-10-16T12:29:38;18.70;99.90
59660;DHT22;45534;52.690;6.268;2022-10-16T12:34:51;19.50;99.90
59660;DHT22;45534;52.690;6.268;2022-10-16T12:37:34;19.80;99.90
59660;DHT22;45534;52.690;6.268;2022-10-16T12:42:47;19.60;99.90
59660;DHT22;45534;52.690;6.268;2022-10-16T12:45:25;19.40;99.90
59660;DHT22;45534;52.690;6.268;2022-10-16T12:47:52;19.80;99.90
59660;DHT22;45534;52.690;6.268;2022-10-16T12:50:33;20.10;99.90
59660;DHT22;45534;52.690;6.268;2022-10-16T12:53:01;20.40;99.90
59660;DHT22;45534;52.690;6.268;2022-10-16T12:55:33;20.50;99.90
59660;DHT22;45534;52.690;6.268;2022-10-16T12:58:16;20.60;99.90
59660;DHT22;45534;52.690;6.268;2022-10-16T13:00:50;20.50;99.90
59660;DHT22;45534;52.690;6.268;2022-10-16T13:11:43;21.50;98.80
59660;DHT22;45534;52.690;6.268;2022-10-16T13:14:44;21.60;98.20
59660;DHT22;45534;52.690;6.268;2022-10-16T13:17:46;21.80;94.60
59660;DHT22;45534;52.690;6.268;2022-10-16T13:20:26;22.00;88.50
59660;DHT22;45534;52.690;6.268;2022-10-16T13:25:58;21.20;96.30
59660;DHT22;45534;52.690;6.268;2022-10-16T13:28:31;20.70;96.00
59660;DHT22;45534;52.690;6.268;2022-10-16T13:30:57;21.00;95.80
59660;DHT22;45534;52.690;6.268;2022-10-16T13:33:38;21.10;91.90
59660;DHT22;45534;52.690;6.268;2022-10-16T13:36:06;21.40;96.10
59660;DHT22;45534;52.690;6.268;2022-10-16T13:38:35;21.60;94.40
59660;DHT22;45534;52.690;6.268;2022-10-16T13:41:12;21.70;93.20
59660;DHT22;45534;52.690;6.268;2022-10-16T13:43:50;21.30;95.30
59660;DHT22;45534;52.690;6.268;2022-10-16T13:46:24;21.10;93.90
59660;DHT22;45534;52.690;6.268;2022-10-16T13:49:16;21.00;97.00
59660;DHT22;45534;52.690;6.268;2022-10-16T13:51:54;20.90;94.00
59660;DHT22;45534;52.690;6.268;2022-10-16T13:54:21;20.80;95.10
59660;DHT22;45534;52.690;6.268;2022-10-16T13:56:47;20.70;95.90
59660;DHT22;45534;52.690;6.268;2022-10-16T13:59:36;20.60;96.40
59660;DHT22;45534;52.690;6.268;2022-10-16T14:02:19;20.60;95.40
59660;DHT22;45534;52.690;6.268;2022-10-16T14:04:46;20.50;97.70
59660;DHT22;45534;52.690;6.268;2022-10-16T14:07:24;20.50;97.50
59660;DHT22;45534;52.690;6.268;2022-10-16T14:09:51;20.60;96.70
59660;DHT22;45534;52.690;6.268;2022-10-16T14:12:18;20.60;95.80
59660;DHT22;45534;52.690;6.268;2022-10-16T14:14:46;20.50;96.10
59660;DHT22;45534;52.690;6.268;2022-10-16T14:17:17;20.40;96.70
59660;DHT22;45534;52.690;6.268;2022-10-16T14:19:47;20.50;97.10
59660;DHT22;45534;52.690;6.268;2022-10-16T14:22:29;20.50;97.90
59660;DHT22;45534;52.690;6.268;2022-10-16T14:24:56;20.50;98.00
59660;DHT22;45534;52.690;6.268;2022-10-16T14:27:33;20.40;98.10
59660;DHT22;45534;52.690;6.268;2022-10-16T14:32:42;20.10;97.90
59660;DHT22;45534;52.690;6.268;2022-10-16T14:37:56;19.90;99.60
59660;DHT22;45534;52.690;6.268;2022-10-16T14:40:27;19.70;99.90
59660;DHT22;45534;52.690;6.268;2022-10-16T14:42:54;19.50;99.40
59660;DHT22;45534;52.690;6.268;2022-10-16T14:45:21;19.30;99.90
59660;DHT22;45534;52.690;6.268;2022-10-16T14:47:59;19.10;99.90
59660;DHT22;45534;52.690;6.268;2022-10-16T14:50:25;18.90;99.90
59660;DHT22;45534;52.690;6.268;2022-10-16T14:52:51;18.70;99.90
59660;DHT22;45534;52.690;6.268;2022-10-16T14:55:17;18.60;99.90
59660;DHT22;45534;52.690;6.268;2022-10-16T14:57:44;18.50;99.90
59660;DHT22;45534;52.690;6.268;2022-10-16T15:00:28;18.40;99.90
59660;DHT22;45534;52.690;6.268;2022-10-16T15:02:54;18.30;99.90
59660;DHT22;45534;52.690;6.268;2022-10-16T15:05:25;18.30;99.90
59660;DHT22;45534;52.690;6.268;2022-10-16T15:07:52;18.20;99.90
59660;DHT22;45534;52.690;6.268;2022-10-16T15:10:22;18.10;99.90
59660;DHT22;45534;52.690;6.268;2022-10-16T15:12:48;18.00;99.90
59660;DHT22;45534;52.690;6.268;2022-10-16T15:17:54;17.70;99.90
59660;DHT22;45534;52.690;6.268;2022-10-16T15:20:23;17.60;99.90
59660;DHT22;45534;52.690;6.268;2022-10-16T15:22:48;17.60;99.90
59660;DHT22;45534;52.690;6.268;2022-10-16T15:25:35;17.50;99.90
59660;DHT22;45534;52.690;6.268;2022-10-16T15:28:11;17.40;99.90
59660;DHT22;45534;52.690;6.268;2022-10-16T15:30:38;17.20;99.90
59660;DHT22;45534;52.690;6.268;2022-10-16T15:33:05;17.10;99.90
59660;DHT22;45534;52.690;6.268;2022-10-16T15:35:31;17.00;99.90
59660;DHT22;45534;52.690;6.268;2022-10-16T15:37:57;16.90;99.90
59660;DHT22;45534;52.690;6.268;2022-10-16T15:40:23;16.80;99.90
59660;DHT22;45534;52.690;6.268;2022-10-16T15:42:49;16.80;99.90
59660;DHT22;45534;52.690;6.268;2022-10-16T15:45:15;16.70;99.90
59660;DHT22;45534;52.690;6.268;2022-10-16T15:47:42;16.60;99.90
59660;DHT22;45534;52.690;6.268;2022-10-16T15:50:10;16.50;99.90
59660;DHT22;45534;52.690;6.268;2022-10-16T15:52:37;16.40;99.90
59660;DHT22;45534;52.690;6.268;2022-10-16T15:55:06;16.40;99.90
59660;DHT22;45534;52.690;6.268;2022-10-16T15:57:31;16.30;99.90
59660;DHT22;45534;52.690;6.268;2022-10-16T15:59:57;16.20;99.90
59660;DHT22;45534;52.690;6.268;2022-10-16T16:02:23;16.00;99.90
59660;DHT22;45534;52.690;6.268;2022-10-16T16:04:49;15.80;99.90
59660;DHT22;45534;52.690;6.268;2022-10-16T16:07:15;15.80;99.90
59660;DHT22;45534;52.690;6.268;2022-10-16T16:09:40;15.70;99.90
59660;DHT22;45534;52.690;6.268;2022-10-16T16:12:06;15.60;99.90
59660;DHT22;45534;52.690;6.268;2022-10-16T16:14:32;15.50;99.90
59660;DHT22;45534;52.690;6.268;2022-10-16T16:16:58;15.50;99.90
59660;DHT22;45534;52.690;6.268;2022-10-16T16:19:24;15.40;99.90
59660;DHT22;45534;52.690;6.268;2022-10-16T16:21:50;15.40;99.90
59660;DHT22;45534;52.690;6.268;2022-10-16T16:24:16;15.30;99.90
59660;DHT22;45534;52.690;6.268;2022-10-16T16:26:42;15.30;99.90
59660;DHT22;45534;52.690;6.268;2022-10-16T16:29:12;15.20;99.90
59660;DHT22;45534;52.690;6.268;2022-10-16T16:31:39;15.20;99.90
59660;DHT22;45534;52.690;6.268;2022-10-16T16:34:05;15.10;99.90
59660;DHT22;45534;52.690;6.268;2022-10-16T16:36:31;15.00;99.90
59660;DHT22;45534;52.690;6.268;2022-10-16T16:38:58;15.00;99.90
59660;DHT22;45534;52.690;6.268;2022-10-16T16:41:26;14.90;99.90
59660;DHT22;45534;52.690;6.268;2022-10-16T16:43:53;14.80;99.90
59660;DHT22;45534;52.690;6.268;2022-10-16T16:46:19;14.70;99.90
59660;DHT22;45534;52.690;6.268;2022-10-16T16:48:45;14.60;99.90
59660;DHT22;45534;52.690;6.268;2022-10-16T16:51:16;14.50;99.90
59660;DHT22;45534;52.690;6.268;2022-10-16T16:53:48;14.40;99.90
59660;DHT22;45534;52.690;6.268;2022-10-16T16:56:14;14.30;99.90
59660;DHT22;45534;52.690;6.268;2022-10-16T16:58:39;14.20;99.90
59660;DHT22;45534;52.690;6.268;2022-10-16T17:01:05;14.20;99.90
59660;DHT22;45534;52.690;6.268;2022-10-16T17:03:33;14.10;99.90
59660;DHT22;45534;52.690;6.268;2022-10-16T17:06:01;14.10;99.90
59660;DHT22;45534;52.690;6.268;2022-10-16T17:08:28;14.00;99.90
59660;DHT22;45534;52.690;6.268;2022-10-16T17:10:56;13.90;99.90
59660;DHT22;45534;52.690;6.268;2022-10-16T17:13:23;13.90;99.90
59660;DHT22;45534;52.690;6.268;2022-10-16T17:15:50;13.80;99.90
59660;DHT22;45534;52.690;6.268;2022-10-16T17:18:16;13.70;99.90
59660;DHT22;45534;52.690;6.268;2022-10-16T17:20:43;13.70;99.90
59660;DHT22;45534;52.690;6.268;2022-10-16T17:23:10;13.60;99.90
59660;DHT22;45534;52.690;6.268;2022-10-16T17:25:37;13.60;99.90
59660;DHT22;45534;52.690;6.268;2022-10-16T17:28:03;13.50;99.90